Stuart, OK (74570)

4:25 AM CDT on July 25, 2014 (GMT -0500)
Horntown OK (KOKHOLDE3) Elev 827 ft | 35.08 °N, 96.26 °W | Change Station
Active Advisory: Heat Advisory

Current weather conditions updated 13 minutes ago

Clear
Clear
72.5 °F
Feels Like 72.5 °F
N
4.7
Wind Variable Wind from SW

Today is forecast to be nearly the same temperature as yesterday.

Today
High -- | Low -- °F
--% Chance of Precip.
Yesterday
High -- | Low -- °F
Precip. -- in
6:29 AM 8:32 PM
Waning Crescent, 2% visible
Pressure 29.99 in
Visibility 5.0 miles
Clouds Clear
Dew Point 71 °F
Humidity 96%
Rainfall 0.00 in
Snow Depth Not available.
UV 0 out of 12
Pollen 4.40 out of 12
Air Quality Not available.
Flu Activity Not available.
METAR KMLC 250853Z AUTO 17003KT 5SM BR CLR 23/22 A3002 RMK AO2 SLP153 T02280217 58001

More Conditions Fewer Conditions

Pressure 29.99 in
Visibility 5.0 miles
Clouds Clear
Dew Point 71 °F
Humidity 96%
Rainfall 0.00 in
Snow Depth Not available.
UV 0 out of 12
Pollen 4.40 out of 12
Air Quality Not available.
Flu Activity Not available.
METAR KMLC 250853Z AUTO 17003KT 5SM BR CLR 23/22 A3002 RMK AO2 SLP153 T02280217 58001

More Conditions Fewer Conditions

10-Day Weather Forecast

Almanac

Astronomy

Jul. 25, 2014 Rise Set
Actual Time 6:29 AM CDT 8:32 PM CDT
Civil Twilight 6:00 AM CDT 9:00 PM CDT
Nautical Twilight 5:26 AM CDT 9:35 PM CDT
Astronomical Twilight 4:49 AM CDT 10:12 PM CDT
Moon 5:28 AM CDT 7:32 PM CDT
Length of Visible Light 15h 00m
Length of Day
14h 03m
Tomorrow will be 1m 27s shorter.
Waning Crescent, 2% of the Moon is Illuminated
Today
Waning Crescent
Jul 26
New
Aug 3
First Quarter
Aug 10
Full
Aug 17
Last Quarter

Today's Extremes

State Highs State Lows

Community

WunderPhotos

Upload Photos

1,737,276 photos uploaded!

Nearby

Snow Depth

Station Depth Elevation
No new snow has been reported.

Earthquake Activity

City Distance Mag. Time & Date
Perry, Oklahoma 124 miles 2.9 7:28 AM CDT
2014-07-20
Spencer, Oklahoma 84 miles 2.7 4:56 PM CDT
2014-07-18
Helena, Oklahoma 164 miles 3.2 8:41 AM CDT
2014-07-18
Minimum magnitude displayed is 2.5.

Coastal Water Temperatures

Place Temperature
No Stations Reporting

Nearby Weather Stations

Station Location Temp. Heat Index Dew Point Humidity Wind Precip. Elev Updated Type
Horntown OK, Holdenville, OK 72.5 °F - 71 °F 96% SW  at  4.7 mph - / hr 827 ft 4:11 AM CDT Normal
MesoWest NAVY , Savanna, OK 70 °F - - - North  at  - 0.00 in / hr 711 ft 3:00 AM CDT MADIS
Emergency Operations Center, Holdenville, OK 73.8 °F 71 °F 71 °F 92% SSE  at  1.0 mph 0.00 in / hr 908 ft 4:20 AM CDT Normal
MesoWest GRACE , Wardville, OK 73 °F 71 °F - - North  at  - 0.00 in / hr 678 ft 3:10 AM CDT MADIS
Kinkead Hills, McAlester, OK 72.5 °F 70 °F 69 °F 89% SSE  at  0.0 mph - / hr 808 ft 4:10 AM CDT Normal

Show More Stations Show Fewer Stations